EmailTwitter


Observations de surface / France / LFBO (07630)

Régions: Québec | Canada | États-Unis | Europe | France | UK | Ailleurs
Station
Affichage
Infos & localisation pour LFBO (07630) | Aide pour décoder les METARs

Observations prises le 2017-07-26 à 20H00 UTC à TOULOUSE/BLAGNAC, FR (LFBO)

Température: 22.0 Celsius

Point de rosée: 14.0 Celsius

Humidité relative: 60%

Vents: Nord à 6 km/h ou 3 noeuds.

Pression au niveau moyen de la mer: 101.70 kilopascals.

Observation METAR:

LFBO 262000Z AUTO 36003KT 320V030 CAVOK 22/14 Q1017 NOSIG=